Time;durP1;ratioP1;P1;durP2;ratioP2;P2;SDS_P1;SDS_P2;PMS_P1;PMS_P2;Temp;Humidity;BMP_temperature;BMP_pressure;BME280_temperature;BME280_humidity;BME280_pressure;Samples;Min_cycle;Max_cycle;Signal;HPM_P1;HPM_P2
2023/09/26 00:02:22;;;;;;;7.55;4.47;;;;;;;;;;5027283;28;20217;-63
2023/09/26 00:04:47;;;;;;;8.90;4.72;;;;;;;;;;5027501;28;20021;-63
2023/09/26 00:07:12;;;;;;;11.00;4.68;;;;;;;;;;5026585;28;20392;-62
2023/09/26 00:09:38;;;;;;;7.93;4.30;;;;;;;;;;5030693;28;20515;-63
2023/09/26 00:12:04;;;;;;;9.75;4.97;;;;;;;;;;5022643;28;20029;-64
2023/09/26 00:14:29;;;;;;;8.10;5.00;;;;;;;;;;5030173;28;20184;-64
2023/09/26 00:16:54;;;;;;;11.15;4.82;;;;;;;;;;5027927;28;20021;-65
2023/09/26 00:19:19;;;;;;;7.32;4.72;;;;;;;;;;5030918;28;20033;-65
2023/09/26 00:21:47;;;;;;;14.73;4.93;;;;;;;;;;5024988;28;20018;-63
2023/09/26 00:24:12;;;;;;;12.98;5.13;;;;;;;;;;5023719;28;20390;-62
2023/09/26 00:26:37;;;;;;;10.55;4.75;;;;;;;;;;5023073;28;20116;-64
2023/09/26 00:29:02;;;;;;;9.40;4.10;;;;;;;;;;5029652;28;20104;-63
2023/09/26 00:31:28;;;;;;;9.32;4.57;;;;;;;;;;5024186;28;20021;-65
2023/09/26 00:33:53;;;;;;;7.40;4.25;;;;;;;;;;5036218;28;20010;-61
2023/09/26 00:36:18;;;;;;;7.28;4.65;;;;;;;;;;5023112;28;20041;-64
2023/09/26 00:38:43;;;;;;;11.73;4.60;;;;;;;;;;5028574;28;20108;-62
2023/09/26 00:41:10;;;;;;;9.63;4.50;;;;;;;;;;5024092;28;20033;-64
2023/09/26 00:43:35;;;;;;;8.25;4.07;;;;;;;;;;5026157;28;20044;-64
2023/09/26 00:46:01;;;;;;;7.80;4.45;;;;;;;;;;5009354;28;20380;-62
2023/09/26 00:48:27;;;;;;;9.32;4.60;;;;;;;;;;5031364;28;20079;-63
2023/09/26 00:50:53;;;;;;;10.40;4.93;;;;;;;;;;5027527;28;20026;-62
2023/09/26 00:53:18;;;;;;;11.80;5.60;;;;;;;;;;5021061;28;20018;-65
2023/09/26 00:55:44;;;;;;;13.07;5.40;;;;;;;;;;5030004;28;20036;-62
2023/09/26 00:58:13;;;;;;;8.80;5.05;;;;;;;;;;5024672;28;20040;-64
2023/09/26 01:00:39;;;;;;;12.43;5.20;;;;;;;;;;5024127;28;20021;-63
2023/09/26 01:03:04;;;;;;;14.43;5.30;;;;;;;;;;5030055;28;20540;-65
2023/09/26 01:05:29;;;;;;;12.10;5.80;;;;;;;;;;5021062;28;20041;-63
2023/09/26 01:07:55;;;;;;;8.10;5.30;;;;;;;;;;5029854;28;20032;-63
2023/09/26 01:10:20;;;;;;;11.02;5.30;;;;;;;;;;5029500;28;20026;-62
2023/09/26 01:12:45;;;;;;;9.27;4.80;;;;;;;;;;5028687;28;20106;-64
2023/09/26 01:15:11;;;;;;;10.40;5.78;;;;;;;;;;5029629;28;20112;-63
2023/09/26 01:17:36;;;;;;;11.45;6.13;;;;;;;;;;5029843;28;20115;-63
2023/09/26 01:20:05;;;;;;;9.38;5.28;;;;;;;;;;5030606;28;20029;-66
2023/09/26 01:22:31;;;;;;;12.50;6.20;;;;;;;;;;5030983;28;20022;-63
2023/09/26 01:24:57;;;;;;;11.57;5.85;;;;;;;;;;5020897;28;20013;-64
2023/09/26 01:27:22;;;;;;;11.10;5.55;;;;;;;;;;5025338;28;20064;-63
2023/09/26 01:29:47;;;;;;;10.18;5.32;;;;;;;;;;5026016;28;20037;-63
2023/09/26 01:32:13;;;;;;;8.75;5.45;;;;;;;;;;5030215;28;20028;-64
2023/09/26 01:34:38;;;;;;;12.70;5.82;;;;;;;;;;5025391;28;20026;-63
2023/09/26 01:37:03;;;;;;;10.50;5.85;;;;;;;;;;5023081;28;20473;-64
2023/09/26 01:39:31;;;;;;;9.35;6.00;;;;;;;;;;5022555;28;20025;-64
2023/09/26 01:41:56;;;;;;;12.23;5.35;;;;;;;;;;5022967;28;20087;-64
2023/09/26 01:44:22;;;;;;;9.68;5.68;;;;;;;;;;5026413;28;20033;-63
2023/09/26 01:46:47;;;;;;;12.45;6.38;;;;;;;;;;5030045;28;20013;-64
2023/09/26 01:49:13;;;;;;;13.55;5.63;;;;;;;;;;5023370;28;20021;-63
2023/09/26 01:51:38;;;;;;;10.60;6.72;;;;;;;;;;5018122;28;20037;-63
2023/09/26 01:54:04;;;;;;;9.13;5.43;;;;;;;;;;5012590;28;20492;-64
2023/09/26 01:56:31;;;;;;;12.18;6.85;;;;;;;;;;5030767;28;20036;-62
2023/09/26 01:58:56;;;;;;;9.13;6.13;;;;;;;;;;5022217;28;20156;-63
2023/09/26 02:01:21;;;;;;;9.75;6.30;;;;;;;;;;5030860;28;20022;-61
2023/09/26 02:03:46;;;;;;;9.93;5.93;;;;;;;;;;5029432;28;20020;-65
2023/09/26 02:06:12;;;;;;;13.95;6.05;;;;;;;;;;5011943;28;20558;-63
2023/09/26 02:08:37;;;;;;;14.60;6.47;;;;;;;;;;5030141;28;20026;-64
2023/09/26 02:11:02;;;;;;;17.45;6.80;;;;;;;;;;5022509;28;20049;-64
2023/09/26 02:13:27;;;;;;;14.30;6.57;;;;;;;;;;5026931;28;20052;-64
2023/09/26 02:15:53;;;;;;;11.25;6.57;;;;;;;;;;5019644;28;20028;-64
2023/09/26 02:18:18;;;;;;;10.30;5.75;;;;;;;;;;5024731;28;20025;-63
2023/09/26 02:20:43;;;;;;;13.88;7.25;;;;;;;;;;5031941;28;20538;-64
2023/09/26 02:23:08;;;;;;;14.38;6.40;;;;;;;;;;5025899;28;20021;-64
2023/09/26 02:25:34;;;;;;;12.60;6.60;;;;;;;;;;5030573;28;20480;-64
2023/09/26 02:27:59;;;;;;;14.68;6.28;;;;;;;;;;5024967;28;20021;-64
2023/09/26 02:30:26;;;;;;;12.07;6.30;;;;;;;;;;5029591;28;20028;-64
2023/09/26 02:32:52;;;;;;;13.25;6.18;;;;;;;;;;5037425;28;20160;-64
2023/09/26 02:35:20;;;;;;;12.48;6.85;;;;;;;;;;5032668;28;20089;-63
2023/09/26 02:37:46;;;;;;;11.38;6.80;;;;;;;;;;5031775;28;20109;-63
2023/09/26 02:40:11;;;;;;;10.65;6.95;;;;;;;;;;5033701;28;20156;-63
2023/09/26 02:42:37;;;;;;;10.95;6.20;;;;;;;;;;5032511;28;20144;-64
2023/09/26 02:45:03;;;;;;;22.88;7.78;;;;;;;;;;5014894;28;20029;-64
2023/09/26 02:47:28;;;;;;;13.32;6.57;;;;;;;;;;5030354;28;20021;-62
2023/09/26 02:49:53;;;;;;;13.43;6.40;;;;;;;;;;5015130;28;20029;-62
2023/09/26 02:52:19;;;;;;;11.13;6.90;;;;;;;;;;5019864;28;20104;-61
2023/09/26 02:54:44;;;;;;;13.00;7.97;;;;;;;;;;5031539;28;20033;-63
2023/09/26 02:57:09;;;;;;;12.15;6.97;;;;;;;;;;5032411;28;20381;-63
2023/09/26 02:59:34;;;;;;;13.88;8.05;;;;;;;;;;5032716;28;20021;-63
2023/09/26 03:02:00;;;;;;;15.63;7.47;;;;;;;;;;5028179;28;20025;-62
2023/09/26 03:04:25;;;;;;;11.40;6.53;;;;;;;;;;5028775;28;20113;-62
2023/09/26 03:06:50;;;;;;;18.50;6.70;;;;;;;;;;5023440;28;20056;-63
2023/09/26 03:09:15;;;;;;;13.73;6.28;;;;;;;;;;5027879;28;20121;-64
2023/09/26 03:11:41;;;;;;;13.35;7.38;;;;;;;;;;5021672;28;20018;-63
2023/09/26 03:14:07;;;;;;;13.05;6.72;;;;;;;;;;5027037;28;20077;-63
2023/09/26 03:16:32;;;;;;;14.50;6.80;;;;;;;;;;5023186;28;20056;-64
2023/09/26 03:18:57;;;;;;;13.05;7.15;;;;;;;;;;5031518;28;20025;-64
2023/09/26 03:21:24;;;;;;;10.98;6.68;;;;;;;;;;5031972;28;20104;-62
2023/09/26 03:23:49;;;;;;;14.25;8.32;;;;;;;;;;5032479;28;20457;-63
2023/09/26 03:26:14;;;;;;;17.75;9.60;;;;;;;;;;5030086;28;20024;-64
2023/09/26 03:28:40;;;;;;;18.02;9.18;;;;;;;;;;5026947;28;20113;-63
2023/09/26 03:31:06;;;;;;;17.58;8.05;;;;;;;;;;5028919;28;20041;-62
2023/09/26 03:33:32;;;;;;;14.13;7.78;;;;;;;;;;5036613;28;20500;-64
2023/09/26 03:35:58;;;;;;;12.88;7.75;;;;;;;;;;5023664;28;20041;-62
2023/09/26 03:38:23;;;;;;;12.60;6.10;;;;;;;;;;5025978;28;20079;-64
2023/09/26 03:40:54;;;;;;;11.60;6.38;;;;;;;;;;5031197;28;20469;-63
2023/09/26 03:43:20;;;;;;;14.77;6.70;;;;;;;;;;5027435;28;20057;-65
2023/09/26 03:45:45;;;;;;;11.55;7.22;;;;;;;;;;5028798;28;20056;-64
2023/09/26 03:48:10;;;;;;;12.20;7.10;;;;;;;;;;5031764;28;20029;-63
2023/09/26 03:50:35;;;;;;;14.63;7.40;;;;;;;;;;5027304;28;20057;-63
2023/09/26 03:53:01;;;;;;;14.45;7.65;;;;;;;;;;5026891;28;20292;-65
2023/09/26 03:55:26;;;;;;;12.88;7.70;;;;;;;;;;5012461;28;20115;-65
2023/09/26 03:57:51;;;;;;;14.45;7.32;;;;;;;;;;5024449;28;20099;-65
2023/09/26 04:00:18;;;;;;;15.35;8.00;;;;;;;;;;5027799;28;20183;-65
2023/09/26 04:02:44;;;;;;;14.68;7.10;;;;;;;;;;5030361;28;20409;-64
2023/09/26 04:05:09;;;;;;;14.10;8.02;;;;;;;;;;5026626;28;20563;-63
2023/09/26 04:07:34;;;;;;;11.10;7.85;;;;;;;;;;5029631;28;20029;-64
2023/09/26 04:09:59;;;;;;;14.77;6.75;;;;;;;;;;5031748;28;20022;-63
2023/09/26 04:12:25;;;;;;;20.38;8.20;;;;;;;;;;5028436;28;20397;-64
2023/09/26 04:14:50;;;;;;;12.25;7.63;;;;;;;;;;5027732;28;20013;-64
2023/09/26 04:17:15;;;;;;;15.25;8.38;;;;;;;;;;5023606;28;20477;-62
2023/09/26 04:19:40;;;;;;;17.75;8.35;;;;;;;;;;5023921;28;20018;-63
2023/09/26 04:22:06;;;;;;;18.35;8.25;;;;;;;;;;5033020;28;20159;-63
2023/09/26 04:24:31;;;;;;;12.13;7.57;;;;;;;;;;5027031;28;20061;-63
2023/09/26 04:26:56;;;;;;;12.65;7.55;;;;;;;;;;5030320;28;20384;-61
2023/09/26 04:29:21;;;;;;;17.17;8.38;;;;;;;;;;5030674;28;20102;-64
2023/09/26 04:31:47;;;;;;;17.48;8.75;;;;;;;;;;5027630;28;20522;-64
2023/09/26 04:34:12;;;;;;;14.25;8.68;;;;;;;;;;5031534;28;20079;-64
2023/09/26 04:36:37;;;;;;;13.07;8.20;;;;;;;;;;5029729;28;20021;-64
2023/09/26 04:39:02;;;;;;;18.60;9.15;;;;;;;;;;5027155;28;20025;-65
2023/09/26 04:41:27;;;;;;;12.95;8.95;;;;;;;;;;5027475;28;20017;-64
2023/09/26 04:43:53;;;;;;;15.65;8.32;;;;;;;;;;5027954;28;20109;-62
2023/09/26 04:46:18;;;;;;;13.65;8.10;;;;;;;;;;5028887;28;20029;-64
2023/09/26 04:48:44;;;;;;;15.35;8.25;;;;;;;;;;5024349;28;20108;-62
2023/09/26 04:51:11;;;;;;;11.68;7.88;;;;;;;;;;5025683;28;20144;-65
2023/09/26 04:53:36;;;;;;;13.27;8.18;;;;;;;;;;5022951;28;20036;-64
2023/09/26 04:56:02;;;;;;;15.40;9.10;;;;;;;;;;5029913;28;20021;-65
2023/09/26 04:58:29;;;;;;;13.07;7.07;;;;;;;;;;5020317;28;20307;-65
2023/09/26 05:00:54;;;;;;;12.32;7.28;;;;;;;;;;5030436;28;20100;-63
2023/09/26 05:03:19;;;;;;;15.82;9.20;;;;;;;;;;5031752;28;20070;-64
2023/09/26 05:05:45;;;;;;;19.13;8.98;;;;;;;;;;5025076;28;20464;-63
2023/09/26 05:08:10;;;;;;;14.77;8.30;;;;;;;;;;5009373;28;20040;-64
2023/09/26 05:10:36;;;;;;;16.55;7.55;;;;;;;;;;5022027;28;20022;-64
2023/09/26 05:13:01;;;;;;;15.90;8.43;;;;;;;;;;5030270;28;20020;-64
2023/09/26 05:15:26;;;;;;;16.58;9.30;;;;;;;;;;5032265;28;20370;-63
2023/09/26 05:17:52;;;;;;;16.02;8.93;;;;;;;;;;5030398;28;20701;-65
2023/09/26 05:20:18;;;;;;;15.23;9.35;;;;;;;;;;5012754;28;20025;-63
2023/09/26 05:22:44;;;;;;;15.93;9.95;;;;;;;;;;5026843;28;20045;-64
2023/09/26 05:25:09;;;;;;;14.32;8.73;;;;;;;;;;5025767;28;20025;-64
2023/09/26 05:27:36;;;;;;;19.42;9.55;;;;;;;;;;5030392;28;20021;-63
2023/09/26 05:30:01;;;;;;;21.88;9.40;;;;;;;;;;5020855;28;20021;-65
2023/09/26 05:32:26;;;;;;;18.05;10.35;;;;;;;;;;5029597;28;20025;-64
2023/09/26 05:34:51;;;;;;;17.42;9.98;;;;;;;;;;5029431;28;20588;-62
2023/09/26 05:37:17;;;;;;;16.00;8.60;;;;;;;;;;5028041;28;20111;-65
2023/09/26 05:39:42;;;;;;;14.27;8.45;;;;;;;;;;5027856;28;20033;-64
2023/09/26 05:42:10;;;;;;;17.45;9.02;;;;;;;;;;5026691;28;20021;-65
2023/09/26 05:44:35;;;;;;;26.98;12.23;;;;;;;;;;5027435;28;20025;-65
2023/09/26 05:47:00;;;;;;;14.85;10.55;;;;;;;;;;5024027;28;20048;-65
2023/09/26 05:49:27;;;;;;;21.23;9.88;;;;;;;;;;5027156;28;20022;-75
2023/09/26 05:51:52;;;;;;;16.45;9.25;;;;;;;;;;5027392;28;20056;-63
2023/09/26 05:54:17;;;;;;;14.52;8.40;;;;;;;;;;5024596;28;20021;-65
2023/09/26 05:56:44;;;;;;;15.57;9.15;;;;;;;;;;5030905;28;20030;-65
2023/09/26 05:59:09;;;;;;;16.65;8.52;;;;;;;;;;5023137;28;20085;-66
2023/09/26 06:01:37;;;;;;;21.73;9.00;;;;;;;;;;5012692;28;20013;-64
2023/09/26 06:04:03;;;;;;;18.27;8.68;;;;;;;;;;5022280;28;20025;-65
2023/09/26 06:06:29;;;;;;;17.02;7.65;;;;;;;;;;5013047;28;20030;-65
2023/09/26 06:08:54;;;;;;;16.70;8.43;;;;;;;;;;5031935;28;20489;-63
2023/09/26 06:11:19;;;;;;;15.15;9.75;;;;;;;;;;5020482;28;20697;-64
2023/09/26 06:13:45;;;;;;;24.65;11.18;;;;;;;;;;5028085;28;20024;-65
2023/09/26 06:16:10;;;;;;;20.10;11.95;;;;;;;;;;5031229;28;20049;-62
2023/09/26 06:18:36;;;;;;;21.55;11.43;;;;;;;;;;5027847;28;20028;-64
2023/09/26 06:21:05;;;;;;;17.33;9.43;;;;;;;;;;5031852;28;20032;-63
2023/09/26 06:23:30;;;;;;;;;;;;;;;;;;5035895;28;20025;-65
2023/09/26 06:25:56;;;;;;;17.83;8.93;;;;;;;;;;5013001;28;19928;-65
2023/09/26 06:28:21;;;;;;;14.98;7.75;;;;;;;;;;5030328;28;20255;-62
2023/09/26 06:30:47;;;;;;;13.65;8.80;;;;;;;;;;5025494;28;20124;-64
2023/09/26 06:33:12;;;;;;;13.52;8.10;;;;;;;;;;5024517;28;20075;-65
2023/09/26 06:35:37;;;;;;;14.18;8.73;;;;;;;;;;5023036;28;20018;-65
2023/09/26 06:38:03;;;;;;;17.73;8.50;;;;;;;;;;5023810;28;20049;-63
2023/09/26 06:40:28;;;;;;;21.35;9.38;;;;;;;;;;5023613;28;20101;-66
2023/09/26 06:42:56;;;;;;;15.55;8.40;;;;;;;;;;5006764;28;20602;-65
2023/09/26 06:45:22;;;;;;;15.32;8.20;;;;;;;;;;5022573;28;20028;-64
2023/09/26 06:47:47;;;;;;;11.45;7.78;;;;;;;;;;5023348;28;20120;-63
2023/09/26 06:50:12;;;;;;;15.32;8.23;;;;;;;;;;5021695;28;20021;-62
2023/09/26 06:52:38;;;;;;;15.52;8.70;;;;;;;;;;5022561;28;20543;-65
2023/09/26 06:55:09;;;;;;;15.55;7.97;;;;;;;;;;5022978;28;20030;-65
2023/09/26 06:57:35;;;;;;;14.80;8.00;;;;;;;;;;5006193;28;20499;-66
2023/09/26 07:00:01;;;;;;;14.82;8.27;;;;;;;;;;5023326;28;20029;-64
2023/09/26 07:02:26;;;;;;;14.98;8.60;;;;;;;;;;5021487;28;20022;-65
2023/09/26 07:04:54;;;;;;;15.45;8.63;;;;;;;;;;5021069;28;20021;-66
2023/09/26 07:07:19;;;;;;;14.25;8.90;;;;;;;;;;5026347;28;20457;-65
2023/09/26 07:09:45;;;;;;;14.57;8.50;;;;;;;;;;5026338;28;20160;-66
2023/09/26 07:12:10;;;;;;;13.40;8.45;;;;;;;;;;5026470;28;20029;-66
2023/09/26 07:14:35;;;;;;;12.88;8.00;;;;;;;;;;5024432;28;20033;-65
2023/09/26 07:17:01;;;;;;;14.10;7.95;;;;;;;;;;5026045;28;20036;-63
2023/09/26 07:19:32;;;;;;;13.15;7.32;;;;;;;;;;5026377;28;20040;-65
2023/09/26 07:21:57;;;;;;;13.40;8.48;;;;;;;;;;5026549;28;20021;-64
2023/09/26 07:24:25;;;;;;;16.70;8.55;;;;;;;;;;5024114;28;20075;-66
2023/09/26 07:26:51;;;;;;;13.77;8.85;;;;;;;;;;5025520;28;20695;-65
2023/09/26 07:29:16;;;;;;;15.23;8.27;;;;;;;;;;5025060;28;20033;-66
2023/09/26 07:31:42;;;;;;;16.52;8.43;;;;;;;;;;5025435;28;20099;-65
2023/09/26 07:34:07;;;;;;;12.60;8.48;;;;;;;;;;5024314;28;20068;-66
2023/09/26 07:36:32;;;;;;;15.13;7.43;;;;;;;;;;5026117;28;20053;-66
2023/09/26 07:38:57;;;;;;;14.40;7.93;;;;;;;;;;5026434;28;20052;-66
2023/09/26 07:41:23;;;;;;;19.30;9.68;;;;;;;;;;5026460;28;20038;-64
2023/09/26 07:43:48;;;;;;;15.32;8.15;;;;;;;;;;5024620;28;20104;-65
2023/09/26 07:46:14;;;;;;;20.30;8.52;;;;;;;;;;5025896;28;20034;-64
2023/09/26 07:48:39;;;;;;;18.92;8.52;;;;;;;;;;5026203;28;20036;-64
2023/09/26 07:51:05;;;;;;;15.93;8.32;;;;;;;;;;5025911;28;20104;-64
2023/09/26 07:53:31;;;;;;;16.02;8.48;;;;;;;;;;5023278;28;20029;-64
2023/09/26 07:55:56;;;;;;;16.23;8.27;;;;;;;;;;5007642;28;20440;-65
2023/09/26 07:58:22;;;;;;;13.68;8.02;;;;;;;;;;5022908;28;20022;-66
2023/09/26 08:00:47;;;;;;;20.00;9.15;;;;;;;;;;5006046;28;20029;-65
2023/09/26 08:03:13;;;;;;;22.55;9.70;;;;;;;;;;5024650;28;20025;-65
2023/09/26 08:05:38;;;;;;;16.70;7.50;;;;;;;;;;5024707;28;20025;-64
2023/09/26 08:08:04;;;;;;;20.98;7.78;;;;;;;;;;5024540;28;20025;-65
2023/09/26 08:10:30;;;;;;;15.63;8.00;;;;;;;;;;5005879;28;20102;-64
2023/09/26 08:12:56;;;;;;;11.77;6.57;;;;;;;;;;5022002;28;20029;-65
2023/09/26 08:15:21;;;;;;;13.82;6.55;;;;;;;;;;5022388;28;20037;-65
2023/09/26 08:17:46;;;;;;;11.55;6.45;;;;;;;;;;5023611;28;20041;-63
2023/09/26 08:20:11;;;;;;;11.60;7.03;;;;;;;;;;5025659;28;20485;-62
2023/09/26 08:22:37;;;;;;;13.40;7.68;;;;;;;;;;5008623;28;20477;-64
2023/09/26 08:25:03;;;;;;;15.50;7.22;;;;;;;;;;5024078;28;20046;-64
2023/09/26 08:27:35;;;;;;;15.13;7.25;;;;;;;;;;5023770;28;20163;-64
2023/09/26 08:30:00;;;;;;;11.57;7.03;;;;;;;;;;5025460;28;20033;-64
2023/09/26 08:32:26;;;;;;;15.75;7.60;;;;;;;;;;5023801;28;20127;-64
2023/09/26 08:34:51;;;;;;;13.77;7.47;;;;;;;;;;5021351;28;20033;-65
2023/09/26 08:37:17;;;;;;;12.20;7.60;;;;;;;;;;5021000;28;20034;-64
2023/09/26 08:39:43;;;;;;;10.02;6.18;;;;;;;;;;5023611;28;20176;-63
2023/09/26 08:42:13;;;;;;;11.65;6.63;;;;;;;;;;5023352;28;20021;-65
2023/09/26 08:44:38;;;;;;;17.25;7.93;;;;;;;;;;5020805;28;20022;-64
2023/09/26 08:47:04;;;;;;;10.55;6.47;;;;;;;;;;5023841;28;20025;-65
2023/09/26 08:49:29;;;;;;;10.68;6.20;;;;;;;;;;5024098;28;20049;-64
2023/09/26 08:51:54;;;;;;;9.40;6.03;;;;;;;;;;5022448;28;20030;-64
2023/09/26 08:54:19;;;;;;;13.20;6.28;;;;;;;;;;5022353;28;20034;-62
2023/09/26 08:56:45;;;;;;;14.70;6.45;;;;;;;;;;5027370;28;20079;-65
2023/09/26 08:59:11;;;;;;;10.02;5.65;;;;;;;;;;5007970;28;20036;-66
2023/09/26 09:01:36;;;;;;;10.80;5.13;;;;;;;;;;5024950;28;20009;-65
2023/09/26 09:04:02;;;;;;;11.20;6.03;;;;;;;;;;5022883;28;20028;-63
2023/09/26 09:06:27;;;;;;;19.23;5.80;;;;;;;;;;5025437;28;20033;-64
2023/09/26 09:09:09;;;;;;;10.90;5.20;;;;;;;;;;5023374;28;20080;-67
2023/09/26 09:11:34;;;;;;;13.80;5.63;;;;;;;;;;5027718;28;20078;-66
2023/09/26 09:13:59;;;;;;;10.85;5.18;;;;;;;;;;5027313;28;20108;-63
2023/09/26 09:16:24;;;;;;;10.40;6.53;;;;;;;;;;5025807;28;20033;-64
2023/09/26 09:18:51;;;;;;;10.05;5.50;;;;;;;;;;5026132;28;20045;-65
2023/09/26 09:21:27;;;;;;;12.52;5.57;;;;;;;;;;5025905;28;20132;-65
2023/09/26 09:23:53;;;;;;;10.32;4.90;;;;;;;;;;5024710;28;20096;-64
2023/09/26 09:26:20;;;;;;;12.98;5.80;;;;;;;;;;5026126;28;20154;-67
2023/09/26 09:28:45;;;;;;;19.13;6.93;;;;;;;;;;5026000;28;20040;-66
2023/09/26 09:31:15;;;;;;;15.02;6.85;;;;;;;;;;5026028;28;20037;-64
2023/09/26 09:33:47;;;;;;;11.55;6.03;;;;;;;;;;5025707;28;20095;-66
2023/09/26 09:36:13;;;;;;;15.45;6.93;;;;;;;;;;5024080;28;20028;-65
2023/09/26 09:38:39;;;;;;;12.48;6.50;;;;;;;;;;5024250;28;20018;-65
2023/09/26 09:41:04;;;;;;;12.00;6.40;;;;;;;;;;5023904;28;20076;-66
2023/09/26 09:43:29;;;;;;;15.18;6.10;;;;;;;;;;5023775;28;20022;-64
2023/09/26 09:45:57;;;;;;;13.65;6.50;;;;;;;;;;5027439;28;20037;-63
2023/09/26 09:48:25;;;;;;;10.18;6.03;;;;;;;;;;5027991;28;20030;-65
2023/09/26 09:50:52;;;;;;;;;;;;;;;;;;5026419;28;20021;-65
2023/09/26 09:53:18;;;;;;;14.07;5.65;;;;;;;;;;5025178;28;19901;-65
2023/09/26 09:55:47;;;;;;;10.57;5.80;;;;;;;;;;5022980;28;20022;-62
2023/09/26 09:58:12;;;;;;;;;;;;;;;;;;5024182;28;20028;-63
2023/09/26 10:00:39;;;;;;;12.50;6.63;;;;;;;;;;5023542;28;20004;-65
2023/09/26 10:03:05;;;;;;;22.05;6.18;;;;;;;;;;5023663;28;20026;-64
2023/09/26 10:05:31;;;;;;;17.30;6.18;;;;;;;;;;5012305;28;20066;-64
2023/09/26 10:07:57;;;;;;;13.20;6.10;;;;;;;;;;5019706;28;20022;-63
2023/09/26 10:10:24;;;;;;;9.55;5.75;;;;;;;;;;5022525;28;20031;-66
2023/09/26 10:12:50;;;;;;;13.50;6.47;;;;;;;;;;5023131;28;20049;-65
2023/09/26 10:15:16;;;;;;;12.32;5.90;;;;;;;;;;5020890;28;20053;-64
2023/09/26 10:17:41;;;;;;;16.15;5.75;;;;;;;;;;5024132;28;20033;-64
2023/09/26 10:20:10;;;;;;;12.40;5.65;;;;;;;;;;5014304;28;20025;-65
2023/09/26 10:22:37;;;;;;;15.75;5.80;;;;;;;;;;5023113;28;20018;-65
2023/09/26 10:25:05;;;;;;;14.77;6.28;;;;;;;;;;5023010;28;20035;-65
2023/09/26 10:27:31;;;;;;;16.35;6.95;;;;;;;;;;5024436;28;21067;-64
2023/09/26 10:29:56;;;;;;;12.73;6.30;;;;;;;;;;5024808;28;20037;-64
2023/09/26 10:32:27;;;;;;;14.00;5.22;;;;;;;;;;5022830;28;20632;-65
2023/09/26 10:34:52;;;;;;;15.88;6.65;;;;;;;;;;5022472;28;20566;-65
2023/09/26 10:37:20;;;;;;;12.75;5.93;;;;;;;;;;5023183;28;20030;-65
2023/09/26 10:39:46;;;;;;;12.52;5.53;;;;;;;;;;5024358;28;20030;-65
2023/09/26 10:42:11;;;;;;;11.80;5.40;;;;;;;;;;5027256;28;20192;-65
2023/09/26 10:44:37;;;;;;;14.93;5.03;;;;;;;;;;5025845;28;20016;-62
2023/09/26 10:47:04;;;;;;;15.43;5.53;;;;;;;;;;5025364;28;20056;-65
2023/09/26 10:49:30;;;;;;;10.57;5.78;;;;;;;;;;5008601;28;20960;-65
2023/09/26 10:51:55;;;;;;;12.85;4.85;;;;;;;;;;5024999;28;20120;-62
2023/09/26 10:54:21;;;;;;;14.40;5.65;;;;;;;;;;5024323;28;20420;-63
2023/09/26 10:56:49;;;;;;;10.43;5.60;;;;;;;;;;5026319;28;20022;-65
2023/09/26 10:59:18;;;;;;;16.37;5.83;;;;;;;;;;5026881;28;20017;-62
2023/09/26 11:01:45;;;;;;;13.02;5.53;;;;;;;;;;5024829;28;20021;-65
2023/09/26 11:04:10;;;;;;;16.38;6.25;;;;;;;;;;5052965;23;20021;-69
2023/09/26 11:06:37;;;;;;;12.40;5.75;;;;;;;;;;5021685;28;20038;-67
2023/09/26 11:09:03;;;;;;;15.15;5.97;;;;;;;;;;5024235;28;20021;-68
2023/09/26 11:11:28;;;;;;;15.23;6.07;;;;;;;;;;5023842;28;20090;-69
2023/09/26 11:13:53;;;;;;;14.90;6.07;;;;;;;;;;5003185;28;21398;-67
2023/09/26 11:16:18;;;;;;;13.60;5.90;;;;;;;;;;5023738;28;20091;-66
2023/09/26 11:18:44;;;;;;;16.55;5.90;;;;;;;;;;5021878;28;20091;-69
2023/09/26 11:21:09;;;;;;;11.53;5.60;;;;;;;;;;5023727;28;20210;-68
2023/09/26 11:23:35;;;;;;;14.13;5.78;;;;;;;;;;5021954;28;20263;-69
2023/09/26 11:26:03;;;;;;;15.68;7.07;;;;;;;;;;5022578;28;20037;-69
2023/09/26 11:28:29;;;;;;;11.20;5.63;;;;;;;;;;5020910;28;20477;-65
2023/09/26 11:30:55;;;;;;;11.95;5.95;;;;;;;;;;5022538;28;20056;-65
2023/09/26 11:33:20;;;;;;;10.60;5.78;;;;;;;;;;5021785;28;21437;-69
2023/09/26 11:35:46;;;;;;;11.40;4.72;;;;;;;;;;5021025;28;20055;-66
2023/09/26 11:38:11;;;;;;;15.25;6.68;;;;;;;;;;5021538;28;20025;-68
2023/09/26 11:40:36;;;;;;;9.05;5.32;;;;;;;;;;5022537;28;20036;-67
2023/09/26 11:43:03;;;;;;;10.65;4.85;;;;;;;;;;5022622;28;20120;-70
2023/09/26 11:45:28;;;;;;;11.88;5.82;;;;;;;;;;5018972;28;20055;-68
2023/09/26 11:47:56;;;;;;;15.05;5.78;;;;;;;;;;5021469;28;20034;-69
2023/09/26 11:50:21;;;;;;;10.60;6.22;;;;;;;;;;5002658;28;20840;-67
2023/09/26 11:52:47;;;;;;;15.15;6.60;;;;;;;;;;5021895;28;20060;-68
2023/09/26 11:55:18;;;;;;;12.02;5.13;;;;;;;;;;5019724;28;20064;-67
2023/09/26 11:57:44;;;;;;;10.73;5.53;;;;;;;;;;5002478;28;20492;-68
2023/09/26 12:00:15;;;;;;;18.98;6.00;;;;;;;;;;5023228;28;20021;-69
2023/09/26 12:02:42;;;;;;;10.98;5.45;;;;;;;;;;5020736;28;20129;-67
2023/09/26 12:05:08;;;;;;;15.70;6.53;;;;;;;;;;5018572;28;20475;-68
2023/09/26 12:07:33;;;;;;;16.67;6.28;;;;;;;;;;5022588;28;20017;-68
2023/09/26 12:09:59;;;;;;;11.13;5.25;;;;;;;;;;5021405;28;20155;-63
2023/09/26 12:12:24;;;;;;;13.90;5.00;;;;;;;;;;5021899;28;20025;-66
2023/09/26 12:14:51;;;;;;;16.70;5.55;;;;;;;;;;5019428;28;20033;-67
2023/09/26 12:17:16;;;;;;;16.58;5.70;;;;;;;;;;5021329;28;20043;-67
2023/09/26 12:19:42;;;;;;;11.38;5.95;;;;;;;;;;5022080;28;20026;-70
2023/09/26 12:22:07;;;;;;;12.15;5.38;;;;;;;;;;5021533;28;20076;-68
2023/09/26 12:24:32;;;;;;;16.27;5.80;;;;;;;;;;5019733;28;20044;-68
2023/09/26 12:26:59;;;;;;;12.93;6.30;;;;;;;;;;5022866;28;20032;-65
2023/09/26 12:29:24;;;;;;;14.93;5.38;;;;;;;;;;5022120;28;20037;-68
2023/09/26 12:31:49;;;;;;;15.98;5.75;;;;;;;;;;5021544;28;20104;-67
2023/09/26 12:34:15;;;;;;;9.23;5.18;;;;;;;;;;5017577;28;20041;-67
2023/09/26 12:36:40;;;;;;;17.50;5.25;;;;;;;;;;5022125;28;20017;-68
2023/09/26 12:39:07;;;;;;;11.48;5.07;;;;;;;;;;5021236;28;20798;-66
2023/09/26 12:41:32;;;;;;;12.70;5.07;;;;;;;;;;5022028;28;20405;-69
2023/09/26 12:43:58;;;;;;;12.15;4.80;;;;;;;;;;5017086;28;20101;-67
2023/09/26 12:46:23;;;;;;;12.00;5.00;;;;;;;;;;5022149;28;20033;-70
2023/09/26 12:48:48;;;;;;;14.65;5.45;;;;;;;;;;5020144;28;20021;-67
2023/09/26 12:51:14;;;;;;;14.93;5.03;;;;;;;;;;5022029;28;20642;-68
2023/09/26 12:53:39;;;;;;;14.38;4.88;;;;;;;;;;5019220;28;20277;-68
2023/09/26 12:56:04;;;;;;;17.38;5.28;;;;;;;;;;5004628;28;20041;-66
2023/09/26 12:58:29;;;;;;;9.50;4.50;;;;;;;;;;5019206;28;20034;-69
2023/09/26 13:00:55;;;;;;;10.00;5.07;;;;;;;;;;5020660;28;20123;-67
2023/09/26 13:03:21;;;;;;;10.18;4.30;;;;;;;;;;5020084;28;20112;-68
2023/09/26 13:05:46;;;;;;;11.63;5.00;;;;;;;;;;5020502;28;20393;-69
2023/09/26 13:08:11;;;;;;;18.05;4.63;;;;;;;;;;5024507;28;20504;-68
2023/09/26 13:10:36;;;;;;;11.60;4.25;;;;;;;;;;5027388;28;20437;-67
2023/09/26 13:13:02;;;;;;;16.88;4.60;;;;;;;;;;5022954;28;20112;-69
2023/09/26 13:15:31;;;;;;;14.05;4.78;;;;;;;;;;5023671;28;20416;-68
2023/09/26 13:17:56;;;;;;;9.10;4.00;;;;;;;;;;5024479;28;20354;-68
2023/09/26 13:20:21;;;;;;;10.40;4.72;;;;;;;;;;5027832;28;20025;-67
2023/09/26 13:22:47;;;;;;;15.48;4.50;;;;;;;;;;5026828;28;20597;-65
2023/09/26 13:25:13;;;;;;;11.32;4.22;;;;;;;;;;5027970;28;20698;-68
2023/09/26 13:27:38;;;;;;;9.25;4.72;;;;;;;;;;5031506;28;20017;-67
2023/09/26 13:30:04;;;;;;;13.48;4.65;;;;;;;;;;5024623;28;20049;-66
2023/09/26 13:32:30;;;;;;;9.07;4.55;;;;;;;;;;5027866;28;20702;-69
2023/09/26 13:34:55;;;;;;;16.17;4.93;;;;;;;;;;5024697;28;20097;-67
2023/09/26 13:37:20;;;;;;;14.10;5.35;;;;;;;;;;5028106;28;20096;-67
2023/09/26 13:39:45;;;;;;;8.50;4.63;;;;;;;;;;5021734;28;20044;-69
2023/09/26 13:42:11;;;;;;;14.80;4.75;;;;;;;;;;5025806;28;20285;-69
2023/09/26 13:44:36;;;;;;;11.15;4.53;;;;;;;;;;5023811;28;20124;-66
2023/09/26 13:47:02;;;;;;;11.85;3.88;;;;;;;;;;5005532;28;20022;-69
2023/09/26 13:49:28;;;;;;;9.95;4.53;;;;;;;;;;5017904;28;20039;-71
2023/09/26 13:51:55;;;;;;;9.85;4.45;;;;;;;;;;5026297;28;20473;-67
2023/09/26 13:54:20;;;;;;;14.75;4.68;;;;;;;;;;5024801;28;20038;-68
2023/09/26 13:56:45;;;;;;;9.73;4.90;;;;;;;;;;5018707;28;20389;-66
2023/09/26 13:59:11;;;;;;;11.07;4.63;;;;;;;;;;5028403;28;20045;-67
2023/09/26 14:01:36;;;;;;;14.83;4.73;;;;;;;;;;5024068;28;20708;-66
2023/09/26 14:04:01;;;;;;;10.48;4.47;;;;;;;;;;5023199;28;20567;-67
2023/09/26 14:06:26;;;;;;;13.45;4.60;;;;;;;;;;5001539;28;20366;-70
2023/09/26 14:08:52;;;;;;;10.52;4.32;;;;;;;;;;5023385;28;20022;-66
2023/09/26 14:11:17;;;;;;;11.65;4.88;;;;;;;;;;5021690;28;20419;-69
2023/09/26 14:13:43;;;;;;;12.20;4.57;;;;;;;;;;5020895;28;20101;-66
2023/09/26 14:16:09;;;;;;;11.38;4.97;;;;;;;;;;5026758;28;20076;-70
2023/09/26 14:18:36;;;;;;;11.02;4.53;;;;;;;;;;5024035;28;20022;-67
2023/09/26 14:21:03;;;;;;;13.23;4.87;;;;;;;;;;5025937;28;20087;-67
2023/09/26 14:23:28;;;;;;;12.52;4.97;;;;;;;;;;5031514;28;20487;-67